Time;durP1;ratioP1;P1;durP2;ratioP2;P2;SDS_P1;SDS_P2;PMS_P1;PMS_P2;Temp;Humidity;BMP_temperature;BMP_pressure;BME280_temperature;BME280_humidity;BME280_pressure;Samples;Min_cycle;Max_cycle;Signal;HPM_P1;HPM_P2
2021/07/13 00:00:05;;;;;;;13.82;11.48;;;;;;;20.45;52.53;100978.41;5034249;28;20040;-71
2021/07/13 00:02:42;;;;;;;15.48;12.77;;;;;;;20.44;52.43;100987.34;5036921;28;20959;-70
2021/07/13 00:05:19;;;;;;;13.60;12.25;;;;;;;20.41;52.45;100977.81;5026396;28;20029;-71
2021/07/13 00:07:49;;;;;;;13.27;11.50;;;;;;;20.43;52.09;100991.81;5031926;28;20132;-71
2021/07/13 00:10:25;;;;;;;14.18;10.18;;;;;;;20.42;52.15;100989.28;5035620;28;20057;-71
2021/07/13 00:12:57;;;;;;;19.05;14.43;;;;;;;20.33;52.55;100990.88;5026099;28;20251;-72
2021/07/13 00:15:28;;;;;;;15.70;14.10;;;;;;;20.22;52.99;100988.22;5023922;28;20067;-71
2021/07/13 00:17:59;;;;;;;15.57;13.95;;;;;;;20.15;53.23;100981.66;5034517;28;20036;-70
2021/07/13 00:20:29;;;;;;;11.05;9.82;;;;;;;20.20;53.37;100982.16;5036366;28;20031;-70
2021/07/13 00:22:58;;;;;;;15.05;12.52;;;;;;;20.30;52.80;100980.47;5036538;28;20037;-68
2021/07/13 00:25:29;;;;;;;15.10;12.80;;;;;;;20.42;52.24;100974.19;5024511;28;20091;-70
2021/07/13 00:28:00;;;;;;;;;;;;;;;20.46;52.21;100972.13;5023101;28;20793;-70
2021/07/13 00:30:31;;;;;;;13.35;12.05;;;;;;;20.39;52.32;100977.09;5020025;28;19917;-70
2021/07/13 00:32:58;;;;;;;13.93;12.15;;;;;;;20.35;52.41;100969.50;5035173;28;20032;-71
2021/07/13 00:35:28;;;;;;;19.10;14.57;;;;;;;20.26;52.74;100968.41;5034960;28;20049;-70
2021/07/13 00:37:54;;;;;;;17.77;14.02;;;;;;;20.18;53.19;100978.78;5034785;28;20041;-70
2021/07/13 00:40:27;;;;;;;12.00;10.82;;;;;;;20.11;53.29;100975.78;5036540;28;20029;-69
2021/07/13 00:42:53;;;;;;;19.65;14.60;;;;;;;20.05;53.38;100968.28;5025541;28;20052;-69
2021/07/13 00:45:22;;;;;;;15.15;12.32;;;;;;;20.10;53.38;100969.63;5017031;28;20029;-69
2021/07/13 00:47:55;;;;;;;17.30;11.85;;;;;;;20.11;53.54;100955.38;5037623;28;20466;-68
2021/07/13 00:50:28;;;;;;;18.42;14.43;;;;;;;20.12;53.17;100969.50;5034315;28;20559;-69
2021/07/13 00:52:57;;;;;;;18.80;12.60;;;;;;;20.06;53.48;100976.16;5024397;28;20045;-69
2021/07/13 00:55:23;;;;;;;21.33;13.23;;;;;;;20.21;52.97;100967.94;5020798;28;20029;-69
2021/07/13 00:57:51;;;;;;;16.38;12.18;;;;;;;20.25;52.67;100972.06;5019287;28;20376;-71
2021/07/13 01:00:21;;;;;;;14.50;12.73;;;;;;;20.27;53.00;100967.47;5033604;28;20080;-69
2021/07/13 01:02:49;;;;;;;17.52;12.63;;;;;;;20.28;53.05;100967.34;5034254;28;20477;-70
2021/07/13 01:05:31;;;;;;;15.68;11.23;;;;;;;20.26;52.74;100963.09;5033792;28;20032;-69
2021/07/13 01:08:19;;;;;;;16.80;14.25;;;;;;;20.19;52.83;100961.88;5018011;28;20041;-69
2021/07/13 01:10:57;;;;;;;12.13;10.82;;;;;;;20.16;53.10;100964.78;5031991;28;20111;-68
2021/07/13 01:13:53;;;;;;;14.85;12.23;;;;;;;20.19;53.00;100961.88;5032782;28;20030;-68
2021/07/13 01:16:30;;;;;;;14.27;12.73;;;;;;;20.21;53.15;100965.28;5033642;28;20548;-69
2021/07/13 01:19:25;;;;;;;18.20;15.70;;;;;;;20.09;53.17;100965.28;5033916;28;20034;-68
2021/07/13 01:21:57;;;;;;;16.17;14.45;;;;;;;19.91;53.68;100972.03;5033815;28;20045;-69
2021/07/13 01:24:50;;;;;;;14.27;12.55;;;;;;;19.89;53.99;100971.31;5032822;28;20049;-68
2021/07/13 01:27:50;;;;;;;20.33;13.88;;;;;;;19.84;54.04;100973.50;5002577;28;20502;-68
2021/07/13 01:30:47;;;;;;;21.67;15.73;;;;;;;19.92;53.96;100976.38;5032206;28;20033;-69
2021/07/13 01:33:22;;;;;;;18.27;13.38;;;;;;;20.16;53.45;100978.06;5032811;28;20406;-68
2021/07/13 01:35:56;;;;;;;19.33;14.25;;;;;;;20.26;52.85;100977.25;5033690;28;20123;-69
2021/07/13 01:38:39;;;;;;;17.63;12.38;;;;;;;20.24;53.20;100978.31;5021188;28;20353;-71
2021/07/13 01:41:26;;;;;;;16.63;14.93;;;;;;;20.19;53.10;100978.66;5033678;28;20831;-70
2021/07/13 01:44:00;;;;;;;17.90;15.18;;;;;;;20.08;53.61;100976.88;5033673;28;20034;-70
2021/07/13 01:46:30;;;;;;;12.02;10.70;;;;;;;20.10;53.85;100974.94;5033228;28;20033;-71
2021/07/13 01:49:00;;;;;;;16.00;14.13;;;;;;;20.06;53.92;100978.78;5019105;28;20041;-70
2021/07/13 01:51:38;;;;;;;12.68;11.48;;;;;;;20.17;53.45;100969.97;5032019;28;20043;-71
2021/07/13 01:54:16;;;;;;;14.68;12.88;;;;;;;20.19;53.35;100961.88;5033826;28;20037;-73
2021/07/13 01:56:47;;;;;;;21.58;15.65;;;;;;;20.10;53.69;100951.06;5033421;28;20465;-69
2021/07/13 01:59:19;;;;;;;;;;;;;;;20.17;53.39;100951.38;5032556;28;20029;-69
2021/07/13 02:02:01;;;;;;;19.13;13.73;;;;;;;20.22;53.15;100956.38;5033451;28;19959;-69
2021/07/13 02:04:32;;;;;;;15.10;11.88;;;;;;;20.25;52.87;100959.63;5030449;28;20029;-69
2021/07/13 02:07:03;;;;;;;14.70;12.52;;;;;;;20.22;52.94;100956.38;5016847;28;20033;-71
2021/07/13 02:09:40;;;;;;;16.15;13.10;;;;;;;20.23;52.99;100952.75;5031951;28;20440;-69
2021/07/13 02:12:12;;;;;;;16.73;12.18;;;;;;;20.18;53.41;100955.75;5007648;28;20029;-72
2021/07/13 02:14:39;;;;;;;16.25;13.48;;;;;;;20.23;53.33;100947.44;5015192;28;20025;-69
2021/07/13 02:17:07;;;;;;;19.58;14.07;;;;;;;20.23;52.92;100942.97;5034529;28;20112;-69
2021/07/13 02:19:40;;;;;;;14.40;11.73;;;;;;;20.22;53.03;100940.47;5034317;28;20033;-70
2021/07/13 02:22:15;;;;;;;14.77;13.27;;;;;;;20.11;53.31;100938.63;5024235;28;20040;-70
2021/07/13 02:24:41;;;;;;;17.10;14.07;;;;;;;20.13;53.11;100934.88;5031909;28;20063;-71
2021/07/13 02:27:18;;;;;;;18.77;15.45;;;;;;;20.00;53.48;100934.16;5034378;28;20020;-70
2021/07/13 02:30:07;;;;;;;16.27;12.82;;;;;;;19.95;53.63;100928.41;5016235;28;20410;-69
2021/07/13 02:32:45;;;;;;;15.02;13.45;;;;;;;20.03;53.88;100925.97;5009195;28;20493;-69
2021/07/13 02:35:12;;;;;;;14.10;12.50;;;;;;;20.02;53.94;100924.28;5034402;28;20410;-70
2021/07/13 02:37:41;;;;;;;21.58;15.95;;;;;;;19.98;53.73;100930.78;5030549;28;20406;-70
2021/07/13 02:40:11;;;;;;;19.73;13.75;;;;;;;19.94;53.95;100937.31;5034800;28;20056;-69
2021/07/13 02:42:47;;;;;;;15.75;13.73;;;;;;;19.97;53.98;100931.78;5016768;28;20084;-70
2021/07/13 02:45:16;;;;;;;21.27;16.50;;;;;;;20.01;53.68;100927.88;5017101;28;20458;-71
2021/07/13 02:47:47;;;;;;;18.38;16.40;;;;;;;20.02;53.32;100918.97;5002421;28;20037;-69
2021/07/13 02:50:14;;;;;;;;;;;;;;;19.99;53.71;100929.81;5032902;28;20047;-68
2021/07/13 02:52:47;;;;;;;22.77;15.23;;;;;;;20.05;53.32;100929.34;5030681;28;20331;-69
2021/07/13 02:55:16;;;;;;;19.65;16.23;;;;;;;20.01;53.58;100922.59;5032126;28;20033;-70
2021/07/13 02:57:45;;;;;;;19.52;14.93;;;;;;;19.91;53.72;100917.19;5030654;28;20033;-70
2021/07/13 03:00:13;;;;;;;15.85;14.18;;;;;;;19.88;53.81;100921.88;5018275;28;20033;-71
2021/07/13 03:02:52;;;;;;;18.52;15.25;;;;;;;19.95;53.66;100919.56;5016843;28;20410;-69
2021/07/13 03:05:38;;;;;;;22.95;17.27;;;;;;;19.90;53.84;100935.84;5018311;28;20025;-69
2021/07/13 03:08:13;;;;;;;22.00;16.05;;;;;;;19.99;53.71;100924.50;5016433;28;20468;-67
2021/07/13 03:10:49;;;;;;;17.92;15.82;;;;;;;19.99;53.80;100923.66;5019579;28;20491;-70
2021/07/13 03:13:19;;;;;;;18.33;14.80;;;;;;;19.97;53.92;100918.50;5031643;28;20025;-69
2021/07/13 03:15:45;;;;;;;17.50;14.20;;;;;;;19.95;53.92;100909.81;5030281;28;20033;-69
2021/07/13 03:18:19;;;;;;;21.52;17.17;;;;;;;19.97;53.75;100915.00;5031910;28;20453;-70
2021/07/13 03:20:50;;;;;;;26.05;18.20;;;;;;;20.01;53.70;100911.97;5031184;28;20067;-69
2021/07/13 03:23:20;;;;;;;18.10;16.15;;;;;;;19.94;53.64;100910.78;5034202;28;20033;-69
2021/07/13 03:25:51;;;;;;;20.77;16.13;;;;;;;19.92;53.88;100910.06;5016692;28;20041;-69
2021/07/13 03:28:28;;;;;;;22.33;18.60;;;;;;;19.80;53.87;100909.22;5035282;28;20027;-70
2021/07/13 03:31:01;;;;;;;23.77;18.05;;;;;;;19.73;53.99;100915.16;5015836;28;20413;-70
2021/07/13 03:33:33;;;;;;;21.60;16.67;;;;;;;19.73;54.38;100920.44;5033314;28;20040;-69
2021/07/13 03:36:04;;;;;;;20.02;16.90;;;;;;;19.64;54.52;100914.06;5034106;28;20033;-70
2021/07/13 03:38:30;;;;;;;23.63;16.98;;;;;;;19.55;54.68;100918.25;5019615;28;20035;-67
2021/07/13 03:40:58;;;;;;;20.45;17.02;;;;;;;19.49;54.93;100919.53;5008675;28;20037;-68
2021/07/13 03:43:36;;;;;;;21.80;19.42;;;;;;;19.47;54.92;100923.28;5035283;28;20663;-68
2021/07/13 03:46:03;;;;;;;24.10;18.13;;;;;;;19.50;55.10;100917.72;5021145;28;20041;-69
2021/07/13 03:48:35;;;;;;;16.65;14.10;;;;;;;19.55;54.89;100917.34;5034900;28;20048;-67
2021/07/13 03:51:00;;;;;;;17.92;15.98;;;;;;;19.58;54.88;100915.34;5037710;28;20340;-67
2021/07/13 03:53:28;;;;;;;26.33;18.42;;;;;;;19.66;54.18;100917.44;5034394;28;20374;-67
2021/07/13 03:55:54;;;;;;;22.80;17.08;;;;;;;19.69;53.94;100930.44;5036424;28;20041;-69
2021/07/13 03:58:32;;;;;;;25.08;18.13;;;;;;;19.68;54.05;100916.34;5035587;28;20193;-69
2021/07/13 04:01:00;;;;;;;22.17;18.60;;;;;;;19.55;54.08;100920.91;5001086;28;20044;-68
2021/07/13 04:03:31;;;;;;;25.75;19.75;;;;;;;19.36;54.86;100925.91;5022656;28;20116;-69
2021/07/13 04:05:56;;;;;;;14.25;12.68;;;;;;;19.39;54.85;100925.66;5017850;28;20036;-68
2021/07/13 04:08:24;;;;;;;23.48;18.17;;;;;;;19.35;54.87;100930.38;5037119;28;20041;-68
2021/07/13 04:10:52;;;;;;;21.70;18.58;;;;;;;19.45;54.70;100933.16;5017611;28;20041;-67
2021/07/13 04:13:28;;;;;;;22.42;16.95;;;;;;;19.56;54.05;100937.66;5034383;28;20111;-70
2021/07/13 04:15:59;;;;;;;21.60;16.92;;;;;;;19.52;54.22;100931.69;5034121;28;20053;-70
2021/07/13 04:18:25;;;;;;;15.80;13.85;;;;;;;19.53;54.22;100930.75;5036701;28;20038;-70
2021/07/13 04:20:54;;;;;;;26.27;16.40;;;;;;;19.54;54.27;100932.44;5034011;28;20540;-69
2021/07/13 04:23:23;;;;;;;24.67;16.80;;;;;;;19.64;54.31;100924.66;5010381;28;20080;-69
2021/07/13 04:25:53;;;;;;;17.83;15.52;;;;;;;19.64;53.69;100924.66;5034433;28;20086;-68
2021/07/13 04:28:30;;;;;;;21.83;17.60;;;;;;;19.73;53.83;100925.75;5036410;28;20068;-70
2021/07/13 04:30:57;;;;;;;24.85;18.83;;;;;;;19.75;53.96;100929.97;5036005;28;20044;-70
2021/07/13 04:33:27;;;;;;;27.30;19.95;;;;;;;19.82;53.83;100922.38;5021712;28;20489;-70
2021/07/13 04:35:57;;;;;;;25.67;18.25;;;;;;;19.91;53.42;100919.81;5017228;28;20406;-69
2021/07/13 04:38:27;;;;;;;25.40;19.92;;;;;;;19.91;53.44;100924.28;5033872;28;20029;-70
2021/07/13 04:41:01;;;;;;;24.30;19.85;;;;;;;19.80;54.02;100922.47;5034159;28;20095;-72
2021/07/13 04:43:29;;;;;;;26.52;19.40;;;;;;;19.78;54.16;100919.09;5019342;28;20026;-71
2021/07/13 04:45:59;;;;;;;21.50;18.38;;;;;;;19.94;54.15;100910.78;5000965;28;20095;-71
2021/07/13 04:48:45;;;;;;;26.00;16.80;;;;;;;20.18;53.49;100917.75;5037262;28;20124;-72
2021/07/13 04:51:16;;;;;;;24.25;17.63;;;;;;;20.46;52.95;100917.25;5032880;28;20040;-71
2021/07/13 04:53:44;;;;;;;22.60;17.33;;;;;;;20.69;52.24;100928.63;5018845;28;20067;-72
2021/07/13 04:56:14;;;;;;;21.65;17.92;;;;;;;20.88;51.89;100922.66;5036715;28;20465;-71
2021/07/13 04:58:42;;;;;;;22.38;18.55;;;;;;;20.96;51.74;100929.16;5036136;28;20120;-72
2021/07/13 05:01:15;;;;;;;22.15;17.13;;;;;;;21.23;50.66;100921.50;5001566;28;20039;-71
2021/07/13 05:03:48;;;;;;;24.20;18.23;;;;;;;21.56;49.93;100922.28;5035292;28;20140;-70
2021/07/13 05:06:21;;;;;;;25.80;17.60;;;;;;;22.03;50.20;100925.28;5015663;28;20048;-71
2021/07/13 05:08:48;;;;;;;19.73;15.88;;;;;;;22.73;48.00;100933.31;5000463;28;20064;-70
2021/07/13 05:11:14;;;;;;;26.52;16.42;;;;;;;22.94;46.41;100936.69;5020480;28;20064;-70
2021/07/13 05:13:41;;;;;;;18.50;14.00;;;;;;;22.92;47.21;100935.97;5034082;28;20041;-71
2021/07/13 05:16:14;;;;;;;20.45;17.45;;;;;;;22.61;47.25;100931.75;5000054;28;20098;-70
2021/07/13 05:18:40;;;;;;;19.25;15.75;;;;;;;23.08;46.89;100929.25;5035616;28;20041;-70
2021/07/13 05:21:10;;;;;;;22.95;15.85;;;;;;;23.44;45.38;100927.63;5017459;28;20034;-70
2021/07/13 05:23:38;;;;;;;19.33;16.08;;;;;;;23.05;46.83;100926.84;5037866;28;20135;-69
2021/07/13 05:26:07;;;;;;;18.70;14.80;;;;;;;23.07;46.12;100920.38;5024671;28;20063;-71
2021/07/13 05:28:35;;;;;;;16.35;13.25;;;;;;;23.23;45.87;100924.28;5019626;28;20039;-70
2021/07/13 05:31:10;;;;;;;17.67;14.35;;;;;;;22.68;47.05;100930.19;5033624;28;20563;-69
2021/07/13 05:33:37;;;;;;;17.75;13.70;;;;;;;22.82;46.71;100937.78;5035398;28;20038;-70
2021/07/13 05:36:08;;;;;;;18.05;14.30;;;;;;;22.70;47.31;100937.09;5017868;28;20064;-69
2021/07/13 05:38:53;;;;;;;14.65;13.07;;;;;;;22.40;47.73;100932.69;5019765;28;20047;-70
2021/07/13 05:41:22;;;;;;;16.48;12.18;;;;;;;22.50;47.66;100930.03;5022479;28;20070;-71
2021/07/13 05:43:54;;;;;;;15.25;13.13;;;;;;;22.27;48.22;100927.63;5033194;28;20087;-70
2021/07/13 05:46:25;;;;;;;13.85;11.82;;;;;;;22.29;48.56;100930.13;5024753;28;20488;-69
2021/07/13 05:48:53;;;;;;;13.90;12.43;;;;;;;22.30;48.20;100932.66;5033086;28;20056;-70
2021/07/13 05:51:31;;;;;;;19.60;14.02;;;;;;;22.22;48.94;100931.66;5034677;28;20026;-69
2021/07/13 05:53:58;;;;;;;19.23;13.93;;;;;;;22.19;49.16;100940.78;5033639;28;20143;-70
2021/07/13 05:56:25;;;;;;;20.08;15.30;;;;;;;22.04;49.77;100937.59;5018944;28;20397;-69
2021/07/13 05:58:51;;;;;;;16.73;13.43;;;;;;;21.98;49.77;100927.53;5023441;28;20036;-69
2021/07/13 06:01:16;;;;;;;15.35;11.32;;;;;;;22.28;49.10;100923.13;5032536;28;20029;-70
2021/07/13 06:03:42;;;;;;;16.17;12.20;;;;;;;22.55;48.55;100930.47;5033126;28;20083;-70
2021/07/13 06:06:13;;;;;;;16.65;12.80;;;;;;;22.35;48.70;100924.25;5034756;28;20029;-69
2021/07/13 06:08:47;;;;;;;19.60;12.00;;;;;;;22.49;48.58;100931.84;5030544;28;20051;-70
2021/07/13 06:11:17;;;;;;;20.88;14.60;;;;;;;22.49;48.87;100939.00;5034788;28;20057;-69
2021/07/13 06:13:51;;;;;;;16.75;13.60;;;;;;;22.39;49.27;100942.50;5022978;28;20113;-69
2021/07/13 06:16:19;;;;;;;25.02;14.25;;;;;;;22.06;50.07;100951.63;5032473;28;20568;-69
2021/07/13 06:18:55;;;;;;;19.70;15.35;;;;;;;21.71;50.94;100942.25;5032373;28;20040;-69
2021/07/13 06:21:22;;;;;;;18.98;13.43;;;;;;;21.83;51.53;100939.50;5022527;28;20116;-70
2021/07/13 06:23:50;;;;;;;20.25;12.68;;;;;;;21.91;50.96;100934.34;5033597;28;20501;-70
2021/07/13 06:26:15;;;;;;;17.38;14.25;;;;;;;22.09;50.90;100940.75;5014127;28;20029;-69
2021/07/13 06:28:43;;;;;;;17.48;13.55;;;;;;;22.27;50.73;100934.75;5021987;28;20657;-70
2021/07/13 06:31:11;;;;;;;16.27;12.43;;;;;;;22.26;50.64;100941.06;5031736;28;20116;-69
2021/07/13 06:33:50;;;;;;;13.88;12.35;;;;;;;22.38;50.84;100945.28;5033328;28;20049;-69
2021/07/13 06:36:20;;;;;;;16.50;12.32;;;;;;;22.38;50.85;100940.81;5021307;28;20040;-69
2021/07/13 06:38:48;;;;;;;21.15;12.60;;;;;;;22.43;50.49;100939.53;5033365;28;20037;-70
2021/07/13 06:41:20;;;;;;;16.35;12.73;;;;;;;22.47;50.01;100941.81;5031752;28;20033;-71
2021/07/13 06:44:14;;;;;;;15.45;13.18;;;;;;;22.47;50.58;100939.16;5031501;28;20032;-70
2021/07/13 06:46:39;;;;;;;14.43;12.10;;;;;;;21.94;51.67;100942.06;5028538;28;20413;-70
2021/07/13 06:49:07;;;;;;;22.25;12.65;;;;;;;22.59;50.07;100940.69;5034288;28;20029;-69
2021/07/13 06:51:35;;;;;;;17.00;11.82;;;;;;;22.73;49.04;100935.97;5032781;28;20032;-69
2021/07/13 06:54:08;;;;;;;13.55;11.98;;;;;;;22.87;48.91;100940.88;5018046;28;20060;-70
2021/07/13 06:56:34;;;;;;;16.23;12.10;;;;;;;23.04;48.59;100946.50;5024028;28;20595;-69
2021/07/13 06:59:06;;;;;;;15.10;11.88;;;;;;;23.06;48.44;100952.53;5034327;28;20029;-70
2021/07/13 07:01:31;;;;;;;16.17;11.77;;;;;;;22.74;48.79;100948.28;5034020;28;20033;-69
2021/07/13 07:04:00;;;;;;;14.65;11.63;;;;;;;22.98;48.86;100947.88;5034108;28;20056;-69
2021/07/13 07:06:30;;;;;;;15.43;11.40;;;;;;;23.26;48.04;100940.00;5031391;28;20087;-71
2021/07/13 07:08:56;;;;;;;14.67;11.10;;;;;;;23.46;48.52;100951.50;5031299;28;20040;-69
2021/07/13 07:11:32;;;;;;;13.60;11.43;;;;;;;23.30;48.13;100944.06;5036205;28;20284;-70
2021/07/13 07:13:59;;;;;;;16.02;12.95;;;;;;;23.07;48.82;100960.34;5034899;28;20041;-69
2021/07/13 07:16:29;;;;;;;17.27;12.20;;;;;;;23.33;47.75;100947.31;5035681;28;20033;-69
2021/07/13 07:18:57;;;;;;;15.70;12.55;;;;;;;23.73;47.29;100954.22;5037323;28;20033;-69
2021/07/13 07:21:22;;;;;;;16.02;13.05;;;;;;;23.86;46.27;100950.44;5021901;28;20028;-69
2021/07/13 07:23:52;;;;;;;15.38;13.35;;;;;;;24.07;46.21;100953.69;5022628;28;20452;-69
2021/07/13 07:26:25;;;;;;;19.55;11.45;;;;;;;24.37;46.73;100949.00;5035874;28;20489;-68
2021/07/13 07:28:53;;;;;;;12.60;11.00;;;;;;;24.73;44.60;100951.75;5020288;28;20144;-69
2021/07/13 07:31:22;;;;;;;11.77;10.67;;;;;;;25.19;43.21;100947.13;5022214;28;20068;-69
2021/07/13 07:34:01;;;;;;;12.75;11.40;;;;;;;25.57;43.30;100950.41;5037270;28;20292;-68
2021/07/13 07:36:34;;;;;;;15.27;10.85;;;;;;;25.65;41.72;100943.28;5034583;28;20540;-69
2021/07/13 07:39:00;;;;;;;12.02;10.80;;;;;;;26.45;40.74;100950.13;5037971;28;20041;-69
2021/07/13 07:41:27;;;;;;;13.95;10.93;;;;;;;26.84;39.40;100952.22;5036880;28;20052;-69
2021/07/13 07:44:00;;;;;;;11.05;9.98;;;;;;;26.43;40.13;100949.47;5037091;28;20048;-70
2021/07/13 07:46:44;;;;;;;12.20;10.73;;;;;;;26.86;39.56;100948.34;5020631;28;20542;-69
2021/07/13 07:49:12;;;;;;;13.13;10.65;;;;;;;26.42;40.36;100947.75;5027247;28;20029;-69
2021/07/13 07:52:14;;;;;;;12.13;9.43;;;;;;;26.94;40.19;100944.84;5036717;28;20063;-70
2021/07/13 07:54:44;;;;;;;10.20;9.20;;;;;;;27.08;39.57;100941.47;5034847;28;20060;-70
2021/07/13 07:57:12;;;;;;;;;;;;;;;27.84;37.94;100952.75;5035307;28;20036;-69
2021/07/13 08:00:05;;;;;;;12.38;11.07;;;;;;;28.40;36.96;100949.16;5021835;28;20396;-69
2021/07/13 08:02:45;;;;;;;10.93;9.82;;;;;;;28.20;36.94;100941.53;5053160;23;20053;-67
2021/07/13 08:05:18;;;;;;;13.50;10.85;;;;;;;28.02;37.19;100949.00;5045637;28;20040;-67
2021/07/13 08:07:59;;;;;;;12.00;10.45;;;;;;;28.02;36.50;100949.81;5046901;28;20170;-67
2021/07/13 08:10:44;;;;;;;10.63;9.38;;;;;;;28.41;35.74;100948.13;5045968;28;20025;-68
2021/07/13 08:13:15;;;;;;;9.15;8.32;;;;;;;29.56;33.96;100938.06;5031316;28;20052;-68
2021/07/13 08:16:35;;;;;;;16.73;9.25;;;;;;;30.59;32.06;100944.34;5027552;28;20107;-68
2021/07/13 08:19:01;;;;;;;10.20;8.88;;;;;;;30.14;33.69;100950.91;5010886;28;20053;-68
2021/07/13 08:21:27;;;;;;;9.85;8.93;;;;;;;30.61;31.84;100944.16;5025754;28;20064;-67
2021/07/13 08:23:52;;;;;;;15.43;10.52;;;;;;;31.79;30.34;100934.44;5026287;28;20034;-68
2021/07/13 08:26:18;;;;;;;12.27;9.32;;;;;;;31.16;31.89;100934.47;5030360;28;20033;-67
2021/07/13 08:28:43;;;;;;;10.02;9.05;;;;;;;30.14;33.81;100934.72;5026260;28;20045;-69
2021/07/13 08:31:09;;;;;;;12.00;8.95;;;;;;;29.29;34.50;100936.88;5026687;28;20144;-67
2021/07/13 08:33:34;;;;;;;10.55;9.52;;;;;;;29.00;35.09;100931.41;5018766;28;20048;-68
2021/07/13 08:36:00;;;;;;;13.02;9.95;;;;;;;29.09;33.93;100935.69;5032313;28;20037;-67
2021/07/13 08:38:25;;;;;;;10.75;9.10;;;;;;;29.21;34.30;100933.41;5027660;28;20139;-70
2021/07/13 08:40:51;;;;;;;14.52;10.63;;;;;;;29.38;33.31;100940.31;5032075;28;20029;-69
2021/07/13 08:43:19;;;;;;;9.80;8.90;;;;;;;29.01;33.93;100927.69;5031096;28;20033;-67
2021/07/13 08:45:47;;;;;;;10.35;9.25;;;;;;;29.86;33.33;100926.47;5029371;28;20072;-68
2021/07/13 08:48:13;;;;;;;12.13;10.20;;;;;;;30.71;31.31;100939.28;5031881;28;20029;-70
2021/07/13 08:50:39;;;;;;;9.90;7.53;;;;;;;31.24;31.06;100929.94;5030541;28;20510;-69
2021/07/13 08:53:05;;;;;;;10.00;9.10;;;;;;;32.36;28.20;100929.63;5026306;28;20351;-69
2021/07/13 08:55:34;;;;;;;9.57;8.55;;;;;;;33.15;27.45;100932.63;5029798;28;20040;-69
2021/07/13 08:58:00;;;;;;;10.15;9.13;;;;;;;33.63;26.72;100930.44;5028286;28;20041;-69
2021/07/13 09:00:25;;;;;;;9.95;8.95;;;;;;;33.31;27.06;100925.97;5025737;28;20060;-69
2021/07/13 09:03:05;;;;;;;10.57;9.50;;;;;;;32.15;29.21;100921.69;5025459;28;20560;-68
2021/07/13 09:05:42;;;;;;;11.63;9.15;;;;;;;31.03;30.52;100922.75;5026528;28;20033;-67
2021/07/13 09:08:32;;;;;;;14.15;8.93;;;;;;;29.74;31.18;100921.56;5025141;28;20032;-66
2021/07/13 09:11:00;;;;;;;10.15;9.30;;;;;;;29.66;32.94;100919.00;5016706;28;20486;-68
2021/07/13 09:13:30;;;;;;;10.20;8.50;;;;;;;29.44;33.39;100925.25;5028163;28;20033;-68
2021/07/13 09:16:01;;;;;;;10.70;8.97;;;;;;;29.29;33.35;100925.28;5023686;28;20033;-67
2021/07/13 09:18:32;;;;;;;10.27;9.00;;;;;;;29.03;33.23;100923.78;5040530;28;20033;-70
2021/07/13 09:21:08;;;;;;;11.65;9.35;;;;;;;31.55;29.08;100922.25;5026457;28;20080;-68
2021/07/13 09:23:33;;;;;;;12.23;11.07;;;;;;;32.20;29.13;100919.22;5025381;28;20356;-69
2021/07/13 09:26:03;;;;;;;11.02;9.20;;;;;;;32.63;28.31;100919.72;5027418;28;20029;-68
2021/07/13 09:28:29;;;;;;;11.43;9.80;;;;;;;32.67;28.32;100920.13;5025154;28;20382;-70
2021/07/13 09:30:57;;;;;;;10.65;9.57;;;;;;;32.57;27.65;100925.13;5024881;28;20358;-68
2021/07/13 09:33:25;;;;;;;11.70;10.10;;;;;;;32.97;27.17;100925.16;5024562;28;20034;-69
2021/07/13 09:36:09;;;;;;;11.55;10.45;;;;;;;33.48;25.98;100924.44;5040623;28;20551;-68
2021/07/13 09:38:36;;;;;;;9.20;8.27;;;;;;;33.80;25.89;100921.88;5024569;28;20575;-69
2021/07/13 09:41:07;;;;;;;8.88;8.02;;;;;;;31.94;27.57;100917.25;5027104;28;20037;-67
2021/07/13 09:43:46;;;;;;;8.23;7.43;;;;;;;32.19;28.69;100920.25;5025450;28;20422;-69
2021/07/13 09:46:29;;;;;;;7.95;7.25;;;;;;;31.74;28.73;100919.84;5025108;28;20033;-69
2021/07/13 09:49:19;;;;;;;9.50;7.90;;;;;;;31.46;28.54;100909.94;5024157;28;20033;-68
2021/07/13 09:52:01;;;;;;;7.22;6.68;;;;;;;31.52;27.81;100914.56;5023713;28;20044;-69
2021/07/13 09:54:40;;;;;;;8.38;7.57;;;;;;;31.05;28.84;100921.53;5039951;28;20081;-68
2021/07/13 09:57:14;;;;;;;7.65;6.70;;;;;;;30.17;30.23;100918.16;5024181;28;20033;-70
2021/07/13 09:59:41;;;;;;;7.28;6.53;;;;;;;29.97;29.59;100918.75;5025351;28;20533;-70
2021/07/13 10:02:08;;;;;;;7.82;6.40;;;;;;;29.81;30.61;100918.13;5023920;28;20521;-70
2021/07/13 10:04:39;;;;;;;7.03;6.32;;;;;;;30.43;30.34;100916.78;5040782;28;20021;-70
2021/07/13 10:07:12;;;;;;;8.40;7.60;;;;;;;30.25;30.05;100920.75;5024280;28;20037;-70
2021/07/13 10:09:42;;;;;;;9.27;8.38;;;;;;;29.93;31.73;100920.16;5016413;28;20417;-69
2021/07/13 10:12:12;;;;;;;10.07;9.07;;;;;;;29.64;30.91;100920.19;5023712;28;20067;-69
2021/07/13 10:14:41;;;;;;;10.35;8.45;;;;;;;29.71;31.60;100915.75;5025159;28;20044;-68
2021/07/13 10:17:08;;;;;;;8.38;7.28;;;;;;;30.31;30.74;100925.38;5028074;28;20060;-68
2021/07/13 10:19:38;;;;;;;10.55;9.27;;;;;;;31.06;30.26;100916.94;5025343;28;20033;-67
2021/07/13 10:22:05;;;;;;;8.63;7.85;;;;;;;30.60;29.57;100923.63;5023980;28;20063;-69
2021/07/13 10:24:33;;;;;;;8.35;7.53;;;;;;;29.80;30.99;100928.06;5023318;28;20084;-68
2021/07/13 10:26:59;;;;;;;9.48;7.15;;;;;;;30.37;30.13;100929.97;5039301;28;20052;-70
2021/07/13 10:29:36;;;;;;;7.65;6.97;;;;;;;30.08;30.65;100924.69;5022856;28;20155;-68
2021/07/13 10:32:05;;;;;;;11.13;5.70;;;;;;;29.74;29.87;100923.44;5024420;28;20738;-69
2021/07/13 10:34:49;;;;;;;7.40;6.70;;;;;;;29.51;30.47;100923.53;5024769;28;20041;-67
2021/07/13 10:37:33;;;;;;;8.82;8.02;;;;;;;29.60;30.99;100922.44;5023851;28;20138;-69
2021/07/13 10:40:10;;;;;;;8.98;7.88;;;;;;;29.44;32.01;100917.19;5023286;28;20044;-67
2021/07/13 10:42:42;;;;;;;12.10;9.38;;;;;;;29.04;32.10;100919.28;5024244;28;20069;-68
2021/07/13 10:45:29;;;;;;;9.80;8.80;;;;;;;28.73;33.21;100921.03;5021933;28;20025;-67
2021/07/13 10:47:58;;;;;;;11.07;9.43;;;;;;;28.51;33.95;100921.88;5024920;28;20044;-67
2021/07/13 10:50:29;;;;;;;9.93;8.93;;;;;;;27.99;35.13;100927.84;5025063;28;20294;-69
2021/07/13 10:53:00;;;;;;;10.77;7.90;;;;;;;28.16;33.88;100929.47;5024185;28;20047;-69
2021/07/13 10:55:31;;;;;;;9.33;7.83;;;;;;;28.28;34.60;100921.84;5023052;28;20029;-69
2021/07/13 10:58:29;;;;;;;10.27;8.30;;;;;;;28.03;33.97;100927.34;5024380;28;20452;-68
2021/07/13 11:00:56;;;;;;;8.98;7.72;;;;;;;28.05;34.30;100933.34;5039679;28;20469;-69
2021/07/13 11:03:31;;;;;;;16.73;8.25;;;;;;;27.87;34.54;100920.19;5022047;28;20124;-70
2021/07/13 11:05:56;;;;;;;11.85;7.90;;;;;;;27.96;35.00;100920.16;5024827;28;20065;-68
2021/07/13 11:08:52;;;;;;;8.63;7.68;;;;;;;28.24;34.02;100921.38;5024663;28;20656;-69
2021/07/13 11:11:27;;;;;;;12.55;10.55;;;;;;;28.13;34.75;100919.09;5024293;28;20030;-69
2021/07/13 11:14:05;;;;;;;10.57;9.45;;;;;;;28.26;35.04;100935.47;5022188;28;20045;-69
2021/07/13 11:16:34;;;;;;;11.07;9.80;;;;;;;28.65;34.88;100921.09;5024913;28;20245;-69
2021/07/13 11:19:03;;;;;;;11.52;10.40;;;;;;;28.68;35.38;100931.50;5021934;28;20140;-69
2021/07/13 11:21:37;;;;;;;12.13;10.90;;;;;;;28.72;35.44;100922.06;5024901;28;20524;-69
2021/07/13 11:24:02;;;;;;;14.27;12.75;;;;;;;28.85;36.69;100923.31;5024175;28;20029;-68
2021/07/13 11:26:29;;;;;;;16.63;13.85;;;;;;;28.69;35.91;100930.47;5027354;28;20069;-70
2021/07/13 11:28:56;;;;;;;14.45;12.15;;;;;;;28.46;35.99;100935.00;5024345;28;20107;-69
2021/07/13 11:31:30;;;;;;;19.48;12.65;;;;;;;28.84;36.02;100937.78;5040359;28;20087;-70
2021/07/13 11:33:58;;;;;;;15.82;14.20;;;;;;;28.62;36.14;100929.53;5017469;28;20045;-70
2021/07/13 11:36:29;;;;;;;13.73;12.02;;;;;;;28.76;35.96;100930.59;5024201;28;20052;-70